createdAt,value
2018-10-01T00:01:12.389Z,43.70
2018-10-01T00:06:16.953Z,43.80
2018-10-01T00:11:20.799Z,43.80
2018-10-01T00:16:24.004Z,43.90
2018-10-01T00:21:32.575Z,43.80
2018-10-01T00:26:36.558Z,43.90
2018-10-01T00:31:39.826Z,43.70
2018-10-01T00:36:43.068Z,43.90
2018-10-01T00:41:46.375Z,43.90
2018-10-01T00:46:49.847Z,43.70
2018-10-01T00:51:53.129Z,43.70
2018-10-01T00:56:56.431Z,43.60
2018-10-01T01:02:00.019Z,43.60
2018-10-01T01:07:03.236Z,43.70
2018-10-01T01:12:06.668Z,43.70
2018-10-01T01:17:09.959Z,43.70
2018-10-01T01:22:13.206Z,43.60
2018-10-01T01:27:16.753Z,43.60
2018-10-01T01:32:20.063Z,43.60
2018-10-01T01:37:23.518Z,43.60
2018-10-01T01:42:26.792Z,43.70
2018-10-01T01:47:30.048Z,43.70
2018-10-01T01:52:33.256Z,43.70
2018-10-01T01:57:36.479Z,43.70
2018-10-01T02:02:39.694Z,43.70
2018-10-01T02:07:42.922Z,43.70
2018-10-01T02:12:46.199Z,43.90
2018-10-01T02:17:49.440Z,43.80
2018-10-01T02:22:52.888Z,43.80
2018-10-01T02:27:56.131Z,43.90
2018-10-01T02:32:59.544Z,43.90
2018-10-01T02:38:02.791Z,43.90
2018-10-01T02:43:06.097Z,43.90
2018-10-01T02:48:09.504Z,44.00
2018-10-01T02:53:18.180Z,43.90
2018-10-01T02:58:21.448Z,44.00
2018-10-01T03:03:24.690Z,44.00
2018-10-01T03:08:28.128Z,44.00
2018-10-01T03:13:31.395Z,44.00
2018-10-01T03:18:34.719Z,44.00
2018-10-01T03:23:37.978Z,44.00
2018-10-01T03:28:41.217Z,44.00
2018-10-01T03:33:44.521Z,44.10
2018-10-01T03:38:47.688Z,44.20
2018-10-01T03:43:50.896Z,44.10
2018-10-01T03:48:54.167Z,44.10
2018-10-01T03:53:57.467Z,44.10
2018-10-01T03:59:00.793Z,44.10
2018-10-01T04:04:04.283Z,44.20
2018-10-01T04:09:08.471Z,44.20
2018-10-01T04:14:11.782Z,44.20
2018-10-01T04:19:15.164Z,44.30
2018-10-01T04:24:18.371Z,44.20
2018-10-01T04:29:21.899Z,44.20
2018-10-01T04:34:25.427Z,44.20
2018-10-01T04:39:28.828Z,44.20
2018-10-01T04:44:32.823Z,44.20
2018-10-01T04:49:36.023Z,44.20
2018-10-01T04:54:39.659Z,44.30
2018-10-01T04:59:43.406Z,44.40
2018-10-01T05:04:46.681Z,44.30
2018-10-01T05:09:50.094Z,44.30
2018-10-01T05:14:54.641Z,44.30
2018-10-01T05:19:57.879Z,44.30
2018-10-01T05:25:01.485Z,44.40
2018-10-01T05:30:05.238Z,44.40
2018-10-01T05:35:09.274Z,44.90
2018-10-01T05:40:12.567Z,44.40
2018-10-01T05:45:15.970Z,44.30
2018-10-01T05:50:19.408Z,44.20
2018-10-01T05:55:22.678Z,45.10
2018-10-01T06:00:26.206Z,44.50
2018-10-01T06:05:29.629Z,44.40
2018-10-01T06:10:32.864Z,44.50
2018-10-01T06:15:36.540Z,44.60
2018-10-01T06:20:39.856Z,44.60
2018-10-01T06:25:45.986Z,44.60
2018-10-01T06:30:49.412Z,44.60
2018-10-01T06:35:52.907Z,44.40
2018-10-01T06:40:56.283Z,44.30
2018-10-01T06:45:59.841Z,44.30
2018-10-01T06:51:04.385Z,44.20
2018-10-01T06:56:08.274Z,44.20
2018-10-01T07:01:11.710Z,44.20
2018-10-01T07:06:15.234Z,44.10
2018-10-01T07:11:18.781Z,44.10
2018-10-01T07:16:22.111Z,44.30
2018-10-01T07:21:26.550Z,44.20
2018-10-01T07:26:30.063Z,44.00
2018-10-01T07:31:34.491Z,44.10
2018-10-01T07:36:37.745Z,43.90
2018-10-01T07:41:41.050Z,43.90
2018-10-01T07:46:44.881Z,43.50
2018-10-01T07:51:48.467Z,43.90
2018-10-01T07:56:52.230Z,43.90
2018-10-01T08:01:55.524Z,43.90
2018-10-01T08:06:58.871Z,43.90
2018-10-01T08:12:02.124Z,43.90
2018-10-01T08:17:05.501Z,43.90
2018-10-01T08:22:08.778Z,43.90
2018-10-01T08:27:12.212Z,43.90
2018-10-01T08:32:15.531Z,43.80
2018-10-01T08:37:18.789Z,43.80
2018-10-01T08:42:22.113Z,43.70
2018-10-01T08:47:25.615Z,43.80
2018-10-01T08:54:42.226Z,43.70
2018-10-01T08:59:45.567Z,43.70
2018-10-01T09:04:49.106Z,43.90
2018-10-01T09:09:52.532Z,43.90
2018-10-01T09:14:55.985Z,43.90
2018-10-01T09:19:59.714Z,43.90
2018-10-01T09:25:03.006Z,43.90
2018-10-01T09:30:06.630Z,43.80
2018-10-01T09:35:10.585Z,43.60
2018-10-01T09:40:13.853Z,43.50
2018-10-01T09:45:17.469Z,43.50
2018-10-01T09:50:20.959Z,43.60
2018-10-01T09:55:24.275Z,43.70
2018-10-01T10:00:33.985Z,43.70
2018-10-01T10:05:37.337Z,43.70
2018-10-01T10:10:40.930Z,43.80
2018-10-01T10:15:44.214Z,43.90
2018-10-01T10:20:48.084Z,43.60
2018-10-01T10:25:51.585Z,44.10
2018-10-01T10:30:54.992Z,43.50
2018-10-01T10:35:58.294Z,43.60
2018-10-01T10:41:01.717Z,44.20
2018-10-01T10:46:05.378Z,43.40
2018-10-01T10:51:08.673Z,43.60
2018-10-01T10:56:12.437Z,43.50
2018-10-01T11:01:15.688Z,43.60
2018-10-01T11:06:19.348Z,43.60
2018-10-01T11:11:22.754Z,43.60
2018-10-01T11:16:25.995Z,43.50
2018-10-01T11:21:29.379Z,43.60
2018-10-01T11:26:33.659Z,43.60
2018-10-01T11:31:37.353Z,43.60
2018-10-01T11:36:40.615Z,43.60
2018-10-01T11:41:46.071Z,43.60
2018-10-01T11:46:50.060Z,43.60
2018-10-01T11:51:53.814Z,43.60
2018-10-01T11:56:57.108Z,43.60
2018-10-01T12:02:00.366Z,43.60
2018-10-01T12:07:03.699Z,43.70
2018-10-01T12:12:07.195Z,43.60
2018-10-01T12:17:10.452Z,43.70
2018-10-01T12:22:13.856Z,43.60
2018-10-01T12:27:18.049Z,43.60
2018-10-01T12:32:21.388Z,43.70
2018-10-01T12:37:24.643Z,43.80
2018-10-01T12:42:28.164Z,43.80
2018-10-01T12:47:31.883Z,43.80
2018-10-01T12:52:35.205Z,43.80
2018-10-01T12:57:38.491Z,43.80
2018-10-01T13:02:42.651Z,43.80
2018-10-01T13:07:46.989Z,43.90
2018-10-01T13:12:50.424Z,43.90
2018-10-01T13:17:53.973Z,43.90
2018-10-01T13:22:57.525Z,43.90
2018-10-01T13:28:00.743Z,44.40
2018-10-01T13:33:04.250Z,43.90
2018-10-01T13:38:09.481Z,43.90
2018-10-01T13:43:12.663Z,43.90
2018-10-01T13:48:17.919Z,43.90
2018-10-01T13:53:21.529Z,43.90
2018-10-01T13:58:25.127Z,43.90
2018-10-01T14:03:29.043Z,43.90
2018-10-01T14:08:32.306Z,43.80
2018-10-01T14:13:37.460Z,43.90
2018-10-01T14:18:40.755Z,43.90
2018-10-01T14:23:44.139Z,43.90
2018-10-01T14:28:47.961Z,43.90
2018-10-01T14:33:51.287Z,43.80
2018-10-01T14:38:55.894Z,43.70
2018-10-01T14:43:59.437Z,43.50
2018-10-01T14:49:02.950Z,43.60
2018-10-01T14:54:06.385Z,43.60
2018-10-01T14:59:09.622Z,43.80
2018-10-01T15:04:13.655Z,43.80
2018-10-01T15:09:17.492Z,44.40
2018-10-01T15:14:20.961Z,44.80
2018-10-01T15:19:24.753Z,44.90
2018-10-01T15:24:28.419Z,45.00
2018-10-01T15:29:35.387Z,45.10
2018-10-01T15:34:39.213Z,45.20
2018-10-01T15:39:44.869Z,45.40
2018-10-01T15:44:48.836Z,45.50
2018-10-01T15:49:52.295Z,45.50
2018-10-01T15:54:55.612Z,45.50
2018-10-01T15:59:59.333Z,45.50
2018-10-01T16:05:03.044Z,44.70
2018-10-01T16:10:06.546Z,44.30
2018-10-01T16:15:09.937Z,45.10
2018-10-01T16:20:13.995Z,44.80
2018-10-01T16:25:17.284Z,44.80
2018-10-01T16:30:20.818Z,44.90
2018-10-01T16:35:24.589Z,44.90
2018-10-01T16:40:27.993Z,44.90
2018-10-01T16:45:31.350Z,45.00
2018-10-01T16:50:35.141Z,45.00
2018-10-01T16:55:39.693Z,44.90
2018-10-01T17:00:43.607Z,45.00
2018-10-01T17:05:47.019Z,44.90
2018-10-01T17:10:50.470Z,45.00
2018-10-01T17:15:54.542Z,45.00
2018-10-01T17:20:59.050Z,45.00
2018-10-01T17:26:02.854Z,45.00
2018-10-01T17:31:06.582Z,45.10
2018-10-01T17:36:10.098Z,45.20
2018-10-01T17:41:13.525Z,45.00
2018-10-01T17:46:17.020Z,45.10
2018-10-01T17:51:20.376Z,45.20
2018-10-01T17:56:24.104Z,45.30
2018-10-01T18:01:27.558Z,45.20
2018-10-01T18:06:31.414Z,45.30
2018-10-01T18:11:35.337Z,45.40
2018-10-01T18:16:39.260Z,45.30
2018-10-01T18:21:42.742Z,45.30
2018-10-01T18:26:47.888Z,45.40
2018-10-01T18:31:51.687Z,45.40
2018-10-01T18:36:55.483Z,45.40
2018-10-01T18:41:59.164Z,45.40
2018-10-01T18:47:03.325Z,45.30
2018-10-01T18:52:06.927Z,45.30
2018-10-01T18:57:10.473Z,45.40
2018-10-01T19:02:13.920Z,45.20
2018-10-01T19:07:18.730Z,45.20
2018-10-01T19:12:22.484Z,45.40
2018-10-01T19:17:26.551Z,45.40
2018-10-01T19:22:30.404Z,45.40
2018-10-01T19:27:34.851Z,45.50
2018-10-01T19:32:38.462Z,45.40
2018-10-01T19:37:42.205Z,45.50
2018-10-01T19:42:45.525Z,45.30
2018-10-01T19:47:48.923Z,45.30
2018-10-01T19:52:52.998Z,45.30
2018-10-01T19:57:56.434Z,45.30
2018-10-01T20:02:59.783Z,45.50
2018-10-01T20:08:03.292Z,45.40
2018-10-01T20:13:07.122Z,45.40
2018-10-01T20:18:10.873Z,45.40
2018-10-01T20:23:18.191Z,45.40
2018-10-01T20:28:23.289Z,45.50
2018-10-01T20:33:26.543Z,45.60
2018-10-01T20:38:30.025Z,45.50
2018-10-01T20:43:33.566Z,45.50
2018-10-01T20:48:36.888Z,45.50
2018-10-01T20:53:40.473Z,45.60
2018-10-01T20:58:44.072Z,45.50
2018-10-01T21:03:48.222Z,45.70
2018-10-01T21:08:51.779Z,45.70
2018-10-01T21:14:01.394Z,45.70
2018-10-01T21:19:05.294Z,45.80
2018-10-01T21:24:11.159Z,45.80
2018-10-01T21:29:14.713Z,45.90
2018-10-01T21:34:18.022Z,46.00
2018-10-01T21:39:47.992Z,46.60
2018-10-01T21:44:51.672Z,46.00
2018-10-01T21:49:55.723Z,46.30
2018-10-01T21:54:59.401Z,46.60
2018-10-01T22:00:02.896Z,46.60
2018-10-01T22:05:07.260Z,46.80
2018-10-01T22:10:10.514Z,46.90
2018-10-01T22:15:14.006Z,46.60
2018-10-01T22:20:17.657Z,46.50
2018-10-01T22:25:21.794Z,46.50
2018-10-01T22:30:25.320Z,47.10
2018-10-01T22:35:28.907Z,46.40
2018-10-01T22:40:32.303Z,46.40
2018-10-01T22:45:35.969Z,46.40
2018-10-01T22:50:39.619Z,46.30
2018-10-01T22:55:43.519Z,46.30
2018-10-01T23:00:46.860Z,46.30
2018-10-01T23:05:50.191Z,46.30
2018-10-01T23:10:53.526Z,46.40
2018-10-01T23:15:57.614Z,46.40
2018-10-01T23:21:01.407Z,46.30
2018-10-01T23:26:04.678Z,46.30
2018-10-01T23:31:09.026Z,46.30
2018-10-01T23:36:12.433Z,46.30
2018-10-01T23:41:16.358Z,46.20
2018-10-01T23:46:19.603Z,46.20
2018-10-01T23:51:23.607Z,46.50
2018-10-01T23:56:27.064Z,46.20
